Rayville, Louisiana
Current Conditions -  °F | °C
As of 11:18 AM on Sunday 23 Nov 2014 (Local Time) from KMLU Reporting Station
Moderate Rain Moderate Rain  
Wind Chill: 17°   Ceiling: 900
Heat Index: 17°   Visibility: 4mi
Dew Point: 16°   Wind: 17mph
Humidity: 96%   Direction: 240°WSW
Pressure: 29.51"   Gusts: NA
Location:  32.48°N, 91.75°W
Report Text: KMLU 231718Z 24015KT 4SM RA BR OVC009 17/16 A2951 RMK AO2 P0012 T01670161
Loading
Personal Weather Stations






























Interactive Weather Map New forecast layout! Learn more

10-Day Weather Forecast

Advertisements
Track Severe Weather on mobile